sensor_id;sensor_type;location;lat;lon;timestamp;P1;durP1;ratioP1;P2;durP2;ratioP2
37355;SDS011;48747;50.250;18.848;2023-07-28T00:01:34;4.08;;;2.37;;
37355;SDS011;48747;50.250;18.848;2023-07-28T00:03:37;10.82;;;2.70;;
37355;SDS011;48747;50.250;18.848;2023-07-28T00:05:40;5.53;;;2.17;;
37355;SDS011;48747;50.250;18.848;2023-07-28T00:07:43;3.60;;;2.25;;
37355;SDS011;48747;50.250;18.848;2023-07-28T00:09:46;3.80;;;2.22;;
37355;SDS011;48747;50.250;18.848;2023-07-28T00:11:49;4.83;;;2.30;;
37355;SDS011;48747;50.250;18.848;2023-07-28T00:13:52;8.30;;;2.30;;
37355;SDS011;48747;50.250;18.848;2023-07-28T00:15:55;3.52;;;2.37;;
37355;SDS011;48747;50.250;18.848;2023-07-28T00:17:58;6.28;;;2.25;;
37355;SDS011;48747;50.250;18.848;2023-07-28T00:20:03;3.33;;;2.10;;
37355;SDS011;48747;50.250;18.848;2023-07-28T00:22:06;4.03;;;2.72;;
37355;SDS011;48747;50.250;18.848;2023-07-28T00:24:09;4.47;;;2.15;;
37355;SDS011;48747;50.250;18.848;2023-07-28T00:26:12;3.50;;;2.20;;
37355;SDS011;48747;50.250;18.848;2023-07-28T00:28:15;5.45;;;2.50;;
37355;SDS011;48747;50.250;18.848;2023-07-28T00:30:18;6.33;;;2.52;;
37355;SDS011;48747;50.250;18.848;2023-07-28T00:32:21;6.75;;;2.50;;
37355;SDS011;48747;50.250;18.848;2023-07-28T00:34:24;5.78;;;2.60;;
37355;SDS011;48747;50.250;18.848;2023-07-28T00:36:28;4.53;;;2.40;;
37355;SDS011;48747;50.250;18.848;2023-07-28T00:38:32;15.93;;;2.62;;
37355;SDS011;48747;50.250;18.848;2023-07-28T00:40:35;3.70;;;2.35;;
37355;SDS011;48747;50.250;18.848;2023-07-28T00:42:38;5.00;;;2.20;;
37355;SDS011;48747;50.250;18.848;2023-07-28T00:44:42;8.68;;;2.25;;
37355;SDS011;48747;50.250;18.848;2023-07-28T00:46:45;2.70;;;2.05;;
37355;SDS011;48747;50.250;18.848;2023-07-28T00:48:48;6.70;;;2.20;;
37355;SDS011;48747;50.250;18.848;2023-07-28T00:50:51;7.15;;;2.30;;
37355;SDS011;48747;50.250;18.848;2023-07-28T00:52:55;2.75;;;2.20;;
37355;SDS011;48747;50.250;18.848;2023-07-28T00:54:58;4.30;;;2.30;;
37355;SDS011;48747;50.250;18.848;2023-07-28T00:57:02;7.28;;;2.50;;
37355;SDS011;48747;50.250;18.848;2023-07-28T00:59:06;4.53;;;2.30;;
37355;SDS011;48747;50.250;18.848;2023-07-28T01:01:09;3.87;;;2.20;;
37355;SDS011;48747;50.250;18.848;2023-07-28T01:03:13;4.50;;;2.17;;
37355;SDS011;48747;50.250;18.848;2023-07-28T01:05:16;2.75;;;1.90;;
37355;SDS011;48747;50.250;18.848;2023-07-28T01:07:27;5.87;;;2.10;;
37355;SDS011;48747;50.250;18.848;2023-07-28T01:09:40;4.28;;;2.30;;
37355;SDS011;48747;50.250;18.848;2023-07-28T01:11:53;3.90;;;2.12;;
37355;SDS011;48747;50.250;18.848;2023-07-28T01:14:01;5.12;;;2.12;;
37355;SDS011;48747;50.250;18.848;2023-07-28T01:16:05;6.97;;;2.47;;
37355;SDS011;48747;50.250;18.848;2023-07-28T01:18:09;3.22;;;2.12;;
37355;SDS011;48747;50.250;18.848;2023-07-28T01:20:12;4.05;;;2.25;;
37355;SDS011;48747;50.250;18.848;2023-07-28T01:24:51;6.62;;;2.22;;
37355;SDS011;48747;50.250;18.848;2023-07-28T01:26:55;3.10;;;2.30;;
37355;SDS011;48747;50.250;18.848;2023-07-28T01:28:59;4.08;;;2.05;;
37355;SDS011;48747;50.250;18.848;2023-07-28T01:31:04;5.00;;;2.40;;
37355;SDS011;48747;50.250;18.848;2023-07-28T01:33:08;4.10;;;2.08;;
37355;SDS011;48747;50.250;18.848;2023-07-28T01:35:11;4.37;;;2.20;;
37355;SDS011;48747;50.250;18.848;2023-07-28T01:37:14;5.15;;;2.20;;
37355;SDS011;48747;50.250;18.848;2023-07-28T01:39:17;5.00;;;2.52;;
37355;SDS011;48747;50.250;18.848;2023-07-28T01:41:20;4.22;;;2.20;;
37355;SDS011;48747;50.250;18.848;2023-07-28T01:43:23;5.35;;;2.27;;
37355;SDS011;48747;50.250;18.848;2023-07-28T01:45:26;3.10;;;1.98;;
37355;SDS011;48747;50.250;18.848;2023-07-28T01:47:29;3.10;;;2.00;;
37355;SDS011;48747;50.250;18.848;2023-07-28T01:49:32;4.15;;;2.20;;
37355;SDS011;48747;50.250;18.848;2023-07-28T01:51:35;2.98;;;2.00;;
37355;SDS011;48747;50.250;18.848;2023-07-28T01:53:38;4.12;;;2.17;;
37355;SDS011;48747;50.250;18.848;2023-07-28T01:55:42;3.37;;;2.22;;
37355;SDS011;48747;50.250;18.848;2023-07-28T01:58:19;4.65;;;2.20;;
37355;SDS011;48747;50.250;18.848;2023-07-28T01:59:59;3.25;;;2.10;;
37355;SDS011;48747;50.250;18.848;2023-07-28T02:02:02;3.33;;;2.47;;
37355;SDS011;48747;50.250;18.848;2023-07-28T02:04:05;5.65;;;2.50;;
37355;SDS011;48747;50.250;18.848;2023-07-28T02:06:08;3.67;;;2.20;;
37355;SDS011;48747;50.250;18.848;2023-07-28T02:08:11;3.08;;;2.20;;
37355;SDS011;48747;50.250;18.848;2023-07-28T02:10:14;4.30;;;2.22;;
37355;SDS011;48747;50.250;18.848;2023-07-28T02:12:17;6.03;;;2.50;;
37355;SDS011;48747;50.250;18.848;2023-07-28T02:14:20;3.00;;;2.37;;
37355;SDS011;48747;50.250;18.848;2023-07-28T02:16:23;3.20;;;2.15;;
37355;SDS011;48747;50.250;18.848;2023-07-28T02:18:28;3.08;;;2.12;;
37355;SDS011;48747;50.250;18.848;2023-07-28T02:20:31;3.20;;;2.30;;
37355;SDS011;48747;50.250;18.848;2023-07-28T02:22:36;3.87;;;1.98;;
37355;SDS011;48747;50.250;18.848;2023-07-28T02:24:39;6.03;;;2.30;;
37355;SDS011;48747;50.250;18.848;2023-07-28T02:26:42;3.72;;;2.40;;
37355;SDS011;48747;50.250;18.848;2023-07-28T02:28:45;5.55;;;2.40;;
37355;SDS011;48747;50.250;18.848;2023-07-28T02:30:48;6.70;;;2.50;;
37355;SDS011;48747;50.250;18.848;2023-07-28T02:32:51;5.55;;;2.22;;
37355;SDS011;48747;50.250;18.848;2023-07-28T02:34:54;4.55;;;2.33;;
37355;SDS011;48747;50.250;18.848;2023-07-28T02:36:57;6.47;;;2.27;;
37355;SDS011;48747;50.250;18.848;2023-07-28T02:39:00;7.42;;;2.60;;
37355;SDS011;48747;50.250;18.848;2023-07-28T02:41:03;5.95;;;2.52;;
37355;SDS011;48747;50.250;18.848;2023-07-28T02:43:06;4.95;;;2.58;;
37355;SDS011;48747;50.250;18.848;2023-07-28T02:45:09;3.90;;;2.08;;
37355;SDS011;48747;50.250;18.848;2023-07-28T02:47:12;3.47;;;2.10;;
37355;SDS011;48747;50.250;18.848;2023-07-28T02:49:15;3.62;;;2.25;;
37355;SDS011;48747;50.250;18.848;2023-07-28T02:51:18;4.20;;;2.50;;
37355;SDS011;48747;50.250;18.848;2023-07-28T02:53:21;5.12;;;2.20;;
37355;SDS011;48747;50.250;18.848;2023-07-28T02:55:24;3.98;;;2.40;;
37355;SDS011;48747;50.250;18.848;2023-07-28T02:57:27;5.78;;;2.85;;
37355;SDS011;48747;50.250;18.848;2023-07-28T02:59:30;6.15;;;3.00;;
37355;SDS011;48747;50.250;18.848;2023-07-28T03:01:33;4.42;;;2.60;;
37355;SDS011;48747;50.250;18.848;2023-07-28T03:03:36;5.37;;;2.50;;
37355;SDS011;48747;50.250;18.848;2023-07-28T03:05:39;5.97;;;3.00;;
37355;SDS011;48747;50.250;18.848;2023-07-28T03:07:42;7.70;;;2.58;;
37355;SDS011;48747;50.250;18.848;2023-07-28T03:09:47;4.40;;;2.40;;
37355;SDS011;48747;50.250;18.848;2023-07-28T03:11:50;5.45;;;2.42;;
37355;SDS011;48747;50.250;18.848;2023-07-28T03:13:53;4.55;;;2.55;;
37355;SDS011;48747;50.250;18.848;2023-07-28T03:15:56;6.22;;;2.30;;
37355;SDS011;48747;50.250;18.848;2023-07-28T03:17:59;4.85;;;2.35;;
37355;SDS011;48747;50.250;18.848;2023-07-28T03:20:02;4.90;;;2.40;;
37355;SDS011;48747;50.250;18.848;2023-07-28T03:22:05;4.30;;;2.55;;
37355;SDS011;48747;50.250;18.848;2023-07-28T03:24:08;5.42;;;2.67;;
37355;SDS011;48747;50.250;18.848;2023-07-28T03:26:11;6.40;;;2.80;;
37355;SDS011;48747;50.250;18.848;2023-07-28T03:28:14;4.42;;;2.62;;
37355;SDS011;48747;50.250;18.848;2023-07-28T03:30:17;5.78;;;2.70;;
37355;SDS011;48747;50.250;18.848;2023-07-28T03:32:20;3.92;;;2.67;;
37355;SDS011;48747;50.250;18.848;2023-07-28T03:34:23;4.10;;;2.55;;
37355;SDS011;48747;50.250;18.848;2023-07-28T03:36:27;4.17;;;2.62;;
37355;SDS011;48747;50.250;18.848;2023-07-28T03:38:30;4.97;;;2.60;;
37355;SDS011;48747;50.250;18.848;2023-07-28T03:40:34;4.17;;;2.42;;
37355;SDS011;48747;50.250;18.848;2023-07-28T03:42:37;3.77;;;2.45;;
37355;SDS011;48747;50.250;18.848;2023-07-28T03:44:40;5.45;;;2.55;;
37355;SDS011;48747;50.250;18.848;2023-07-28T03:46:43;5.58;;;2.52;;
37355;SDS011;48747;50.250;18.848;2023-07-28T03:48:47;7.05;;;2.72;;
37355;SDS011;48747;50.250;18.848;2023-07-28T03:50:50;4.47;;;2.62;;
37355;SDS011;48747;50.250;18.848;2023-07-28T03:52:53;3.72;;;2.55;;
37355;SDS011;48747;50.250;18.848;2023-07-28T03:54:56;4.85;;;2.50;;
37355;SDS011;48747;50.250;18.848;2023-07-28T03:56:59;4.62;;;2.75;;
37355;SDS011;48747;50.250;18.848;2023-07-28T03:59:02;4.17;;;2.60;;
37355;SDS011;48747;50.250;18.848;2023-07-28T04:01:05;4.50;;;2.62;;
37355;SDS011;48747;50.250;18.848;2023-07-28T04:03:09;6.08;;;2.80;;
37355;SDS011;48747;50.250;18.848;2023-07-28T04:05:12;4.40;;;2.25;;
37355;SDS011;48747;50.250;18.848;2023-07-28T04:07:15;5.20;;;2.65;;
37355;SDS011;48747;50.250;18.848;2023-07-28T04:09:18;3.27;;;2.35;;
37355;SDS011;48747;50.250;18.848;2023-07-28T04:11:21;8.13;;;2.42;;
37355;SDS011;48747;50.250;18.848;2023-07-28T04:13:24;5.90;;;2.65;;
37355;SDS011;48747;50.250;18.848;2023-07-28T04:15:28;3.85;;;2.17;;
37355;SDS011;48747;50.250;18.848;2023-07-28T04:17:31;5.10;;;2.67;;
37355;SDS011;48747;50.250;18.848;2023-07-28T04:19:33;3.98;;;2.30;;
37355;SDS011;48747;50.250;18.848;2023-07-28T04:21:37;4.28;;;2.35;;
37355;SDS011;48747;50.250;18.848;2023-07-28T04:23:42;3.83;;;2.45;;
37355;SDS011;48747;50.250;18.848;2023-07-28T04:25:45;6.15;;;2.87;;
37355;SDS011;48747;50.250;18.848;2023-07-28T04:27:48;4.72;;;2.55;;
37355;SDS011;48747;50.250;18.848;2023-07-28T04:29:51;5.10;;;2.50;;
37355;SDS011;48747;50.250;18.848;2023-07-28T04:31:54;3.45;;;2.30;;
37355;SDS011;48747;50.250;18.848;2023-07-28T04:33:57;4.22;;;2.47;;
37355;SDS011;48747;50.250;18.848;2023-07-28T04:36:03;4.90;;;2.30;;
37355;SDS011;48747;50.250;18.848;2023-07-28T04:38:06;4.80;;;2.60;;
37355;SDS011;48747;50.250;18.848;2023-07-28T04:40:09;4.17;;;2.20;;
37355;SDS011;48747;50.250;18.848;2023-07-28T04:42:13;3.62;;;2.20;;
37355;SDS011;48747;50.250;18.848;2023-07-28T04:44:16;4.58;;;2.40;;
37355;SDS011;48747;50.250;18.848;2023-07-28T04:46:21;3.77;;;2.30;;
37355;SDS011;48747;50.250;18.848;2023-07-28T04:48:24;4.58;;;2.30;;
37355;SDS011;48747;50.250;18.848;2023-07-28T04:50:28;3.85;;;2.60;;
37355;SDS011;48747;50.250;18.848;2023-07-28T04:52:31;4.65;;;2.50;;
37355;SDS011;48747;50.250;18.848;2023-07-28T04:54:34;4.22;;;2.33;;
37355;SDS011;48747;50.250;18.848;2023-07-28T04:56:37;2.98;;;2.00;;
37355;SDS011;48747;50.250;18.848;2023-07-28T04:58:40;8.85;;;2.40;;
37355;SDS011;48747;50.250;18.848;2023-07-28T05:00:43;5.37;;;2.35;;
37355;SDS011;48747;50.250;18.848;2023-07-28T05:02:46;3.72;;;1.90;;
37355;SDS011;48747;50.250;18.848;2023-07-28T05:04:49;5.20;;;2.42;;
37355;SDS011;48747;50.250;18.848;2023-07-28T05:06:52;3.27;;;2.30;;
37355;SDS011;48747;50.250;18.848;2023-07-28T05:08:55;4.78;;;2.42;;
37355;SDS011;48747;50.250;18.848;2023-07-28T05:10:58;3.98;;;2.40;;
37355;SDS011;48747;50.250;18.848;2023-07-28T05:13:01;3.70;;;2.45;;
37355;SDS011;48747;50.250;18.848;2023-07-28T05:15:08;2.87;;;2.08;;
37355;SDS011;48747;50.250;18.848;2023-07-28T05:17:11;5.90;;;2.70;;
37355;SDS011;48747;50.250;18.848;2023-07-28T05:19:14;6.78;;;2.60;;
37355;SDS011;48747;50.250;18.848;2023-07-28T05:21:17;4.03;;;2.30;;
37355;SDS011;48747;50.250;18.848;2023-07-28T05:23:21;6.75;;;2.60;;
37355;SDS011;48747;50.250;18.848;2023-07-28T05:25:24;6.67;;;2.58;;
37355;SDS011;48747;50.250;18.848;2023-07-28T05:27:27;6.10;;;2.60;;
37355;SDS011;48747;50.250;18.848;2023-07-28T05:29:30;3.35;;;2.27;;
37355;SDS011;48747;50.250;18.848;2023-07-28T05:31:33;6.45;;;2.62;;
37355;SDS011;48747;50.250;18.848;2023-07-28T05:33:38;3.62;;;2.67;;
37355;SDS011;48747;50.250;18.848;2023-07-28T05:35:41;6.28;;;2.60;;
37355;SDS011;48747;50.250;18.848;2023-07-28T05:37:44;3.75;;;2.40;;
37355;SDS011;48747;50.250;18.848;2023-07-28T05:39:47;5.20;;;2.77;;
37355;SDS011;48747;50.250;18.848;2023-07-28T05:41:50;4.12;;;2.70;;
37355;SDS011;48747;50.250;18.848;2023-07-28T05:43:53;3.75;;;2.45;;
37355;SDS011;48747;50.250;18.848;2023-07-28T05:45:57;3.95;;;2.50;;
37355;SDS011;48747;50.250;18.848;2023-07-28T05:48:01;6.47;;;2.70;;
37355;SDS011;48747;50.250;18.848;2023-07-28T05:50:04;5.50;;;2.62;;
37355;SDS011;48747;50.250;18.848;2023-07-28T05:52:08;4.37;;;3.00;;
37355;SDS011;48747;50.250;18.848;2023-07-28T05:54:11;4.85;;;3.30;;
37355;SDS011;48747;50.250;18.848;2023-07-28T05:56:17;6.20;;;2.83;;
37355;SDS011;48747;50.250;18.848;2023-07-28T05:58:20;3.60;;;2.65;;
37355;SDS011;48747;50.250;18.848;2023-07-28T06:00:23;3.83;;;2.65;;
37355;SDS011;48747;50.250;18.848;2023-07-28T06:02:27;4.03;;;2.33;;
37355;SDS011;48747;50.250;18.848;2023-07-28T06:04:30;4.33;;;2.80;;
37355;SDS011;48747;50.250;18.848;2023-07-28T06:06:33;4.42;;;2.50;;
37355;SDS011;48747;50.250;18.848;2023-07-28T06:08:36;6.45;;;2.90;;
37355;SDS011;48747;50.250;18.848;2023-07-28T06:10:42;5.05;;;3.00;;
37355;SDS011;48747;50.250;18.848;2023-07-28T06:12:45;4.22;;;3.10;;
37355;SDS011;48747;50.250;18.848;2023-07-28T06:14:48;5.20;;;3.17;;
37355;SDS011;48747;50.250;18.848;2023-07-28T06:16:51;6.87;;;3.52;;
37355;SDS011;48747;50.250;18.848;2023-07-28T06:18:54;7.75;;;3.42;;
37355;SDS011;48747;50.250;18.848;2023-07-28T06:20:57;6.28;;;3.65;;
37355;SDS011;48747;50.250;18.848;2023-07-28T06:23:00;4.67;;;3.42;;
37355;SDS011;48747;50.250;18.848;2023-07-28T06:25:03;7.47;;;3.80;;
37355;SDS011;48747;50.250;18.848;2023-07-28T06:27:07;7.62;;;3.90;;
37355;SDS011;48747;50.250;18.848;2023-07-28T06:29:10;5.67;;;3.47;;
37355;SDS011;48747;50.250;18.848;2023-07-28T06:31:13;6.37;;;3.35;;
37355;SDS011;48747;50.250;18.848;2023-07-28T06:33:16;5.87;;;3.40;;
37355;SDS011;48747;50.250;18.848;2023-07-28T06:35:19;7.08;;;3.70;;
37355;SDS011;48747;50.250;18.848;2023-07-28T06:37:24;6.03;;;3.83;;
37355;SDS011;48747;50.250;18.848;2023-07-28T06:39:29;9.43;;;4.37;;
37355;SDS011;48747;50.250;18.848;2023-07-28T06:41:31;8.08;;;3.87;;
37355;SDS011;48747;50.250;18.848;2023-07-28T06:43:36;5.80;;;3.80;;
37355;SDS011;48747;50.250;18.848;2023-07-28T06:45:39;4.90;;;3.60;;
37355;SDS011;48747;50.250;18.848;2023-07-28T06:47:58;7.33;;;3.70;;
37355;SDS011;48747;50.250;18.848;2023-07-28T06:49:47;7.25;;;4.10;;
37355;SDS011;48747;50.250;18.848;2023-07-28T06:51:50;6.42;;;3.90;;
37355;SDS011;48747;50.250;18.848;2023-07-28T06:56:23;5.75;;;4.05;;
37355;SDS011;48747;50.250;18.848;2023-07-28T06:58:25;5.70;;;3.95;;
37355;SDS011;48747;50.250;18.848;2023-07-28T07:00:28;6.90;;;3.90;;
37355;SDS011;48747;50.250;18.848;2023-07-28T07:02:31;6.92;;;3.75;;
37355;SDS011;48747;50.250;18.848;2023-07-28T07:04:34;5.33;;;3.52;;
37355;SDS011;48747;50.250;18.848;2023-07-28T07:06:37;5.30;;;3.83;;
37355;SDS011;48747;50.250;18.848;2023-07-28T07:08:43;6.78;;;4.08;;
37355;SDS011;48747;50.250;18.848;2023-07-28T07:10:48;6.25;;;4.00;;
37355;SDS011;48747;50.250;18.848;2023-07-28T07:12:53;9.00;;;4.58;;
37355;SDS011;48747;50.250;18.848;2023-07-28T07:14:57;5.12;;;3.98;;
37355;SDS011;48747;50.250;18.848;2023-07-28T07:17:00;6.12;;;3.77;;
37355;SDS011;48747;50.250;18.848;2023-07-28T07:19:04;5.65;;;3.87;;
37355;SDS011;48747;50.250;18.848;2023-07-28T07:21:07;6.92;;;4.17;;
37355;SDS011;48747;50.250;18.848;2023-07-28T07:23:11;5.62;;;3.92;;
37355;SDS011;48747;50.250;18.848;2023-07-28T07:25:14;5.67;;;4.05;;
37355;SDS011;48747;50.250;18.848;2023-07-28T07:27:17;7.83;;;3.55;;
37355;SDS011;48747;50.250;18.848;2023-07-28T07:29:21;8.08;;;3.92;;
37355;SDS011;48747;50.250;18.848;2023-07-28T07:31:24;5.78;;;3.75;;
37355;SDS011;48747;50.250;18.848;2023-07-28T07:33:27;8.08;;;4.10;;
37355;SDS011;48747;50.250;18.848;2023-07-28T07:35:30;6.50;;;3.77;;
37355;SDS011;48747;50.250;18.848;2023-07-28T07:37:35;6.58;;;3.98;;
37355;SDS011;48747;50.250;18.848;2023-07-28T07:39:38;8.08;;;4.37;;
37355;SDS011;48747;50.250;18.848;2023-07-28T07:41:42;6.75;;;4.10;;
37355;SDS011;48747;50.250;18.848;2023-07-28T07:43:52;7.17;;;4.03;;
37355;SDS011;48747;50.250;18.848;2023-07-28T07:45:51;7.58;;;4.22;;
37355;SDS011;48747;50.250;18.848;2023-07-28T07:47:55;5.90;;;3.70;;
37355;SDS011;48747;50.250;18.848;2023-07-28T07:49:58;6.80;;;3.83;;
37355;SDS011;48747;50.250;18.848;2023-07-28T07:52:02;4.70;;;3.22;;
37355;SDS011;48747;50.250;18.848;2023-07-28T07:54:05;8.20;;;4.53;;
37355;SDS011;48747;50.250;18.848;2023-07-28T07:56:08;8.33;;;4.42;;
37355;SDS011;48747;50.250;18.848;2023-07-28T07:58:12;5.58;;;3.65;;
37355;SDS011;48747;50.250;18.848;2023-07-28T08:00:15;6.37;;;4.30;;
37355;SDS011;48747;50.250;18.848;2023-07-28T08:02:18;5.97;;;4.28;;
37355;SDS011;48747;50.250;18.848;2023-07-28T08:04:21;7.72;;;4.00;;
37355;SDS011;48747;50.250;18.848;2023-07-28T08:06:24;7.97;;;4.30;;
37355;SDS011;48747;50.250;18.848;2023-07-28T08:08:28;6.85;;;4.50;;
37355;SDS011;48747;50.250;18.848;2023-07-28T08:10:31;7.08;;;4.20;;
37355;SDS011;48747;50.250;18.848;2023-07-28T08:12:35;6.40;;;4.22;;
37355;SDS011;48747;50.250;18.848;2023-07-28T08:14:38;6.15;;;4.53;;
37355;SDS011;48747;50.250;18.848;2023-07-28T08:16:41;6.60;;;4.17;;
37355;SDS011;48747;50.250;18.848;2023-07-28T08:18:44;7.45;;;4.72;;
37355;SDS011;48747;50.250;18.848;2023-07-28T08:20:48;8.18;;;4.78;;
37355;SDS011;48747;50.250;18.848;2023-07-28T08:22:51;6.40;;;4.50;;
37355;SDS011;48747;50.250;18.848;2023-07-28T08:24:54;7.60;;;5.10;;
37355;SDS011;48747;50.250;18.848;2023-07-28T08:26:57;6.90;;;4.45;;
37355;SDS011;48747;50.250;18.848;2023-07-28T08:29:00;8.90;;;4.78;;
37355;SDS011;48747;50.250;18.848;2023-07-28T08:31:03;5.95;;;4.35;;
37355;SDS011;48747;50.250;18.848;2023-07-28T08:33:06;6.40;;;4.15;;
37355;SDS011;48747;50.250;18.848;2023-07-28T08:35:09;6.45;;;4.20;;
37355;SDS011;48747;50.250;18.848;2023-07-28T08:37:13;6.25;;;4.15;;
37355;SDS011;48747;50.250;18.848;2023-07-28T08:39:17;6.87;;;4.20;;
37355;SDS011;48747;50.250;18.848;2023-07-28T08:41:21;6.17;;;3.80;;
37355;SDS011;48747;50.250;18.848;2023-07-28T08:43:24;6.47;;;3.80;;
37355;SDS011;48747;50.250;18.848;2023-07-28T08:45:28;6.85;;;4.42;;
37355;SDS011;48747;50.250;18.848;2023-07-28T08:47:32;5.42;;;3.60;;
37355;SDS011;48747;50.250;18.848;2023-07-28T08:49:35;6.90;;;3.70;;
37355;SDS011;48747;50.250;18.848;2023-07-28T08:51:40;7.92;;;4.22;;
37355;SDS011;48747;50.250;18.848;2023-07-28T08:53:44;6.37;;;3.67;;
37355;SDS011;48747;50.250;18.848;2023-07-28T08:55:47;7.53;;;3.80;;
37355;SDS011;48747;50.250;18.848;2023-07-28T08:57:50;5.47;;;3.40;;
37355;SDS011;48747;50.250;18.848;2023-07-28T08:59:53;5.45;;;3.60;;
37355;SDS011;48747;50.250;18.848;2023-07-28T09:01:57;5.33;;;3.25;;
37355;SDS011;48747;50.250;18.848;2023-07-28T09:04:01;5.55;;;4.10;;
37355;SDS011;48747;50.250;18.848;2023-07-28T09:06:04;8.48;;;4.03;;
37355;SDS011;48747;50.250;18.848;2023-07-28T09:08:08;4.45;;;3.60;;
37355;SDS011;48747;50.250;18.848;2023-07-28T09:10:12;6.85;;;3.70;;
37355;SDS011;48747;50.250;18.848;2023-07-28T09:12:15;5.15;;;3.70;;
37355;SDS011;48747;50.250;18.848;2023-07-28T09:14:18;6.95;;;3.27;;
37355;SDS011;48747;50.250;18.848;2023-07-28T09:16:24;5.53;;;3.47;;
37355;SDS011;48747;50.250;18.848;2023-07-28T09:18:29;6.90;;;3.70;;
37355;SDS011;48747;50.250;18.848;2023-07-28T09:20:35;5.80;;;3.50;;
37355;SDS011;48747;50.250;18.848;2023-07-28T09:22:39;5.62;;;3.40;;
37355;SDS011;48747;50.250;18.848;2023-07-28T09:24:42;5.65;;;3.45;;
37355;SDS011;48747;50.250;18.848;2023-07-28T09:26:46;7.17;;;3.40;;
37355;SDS011;48747;50.250;18.848;2023-07-28T09:28:53;7.55;;;3.50;;
37355;SDS011;48747;50.250;18.848;2023-07-28T09:30:56;9.60;;;3.98;;
37355;SDS011;48747;50.250;18.848;2023-07-28T09:32:59;5.28;;;3.90;;
37355;SDS011;48747;50.250;18.848;2023-07-28T09:35:08;6.70;;;3.75;;
37355;SDS011;48747;50.250;18.848;2023-07-28T09:39:16;6.17;;;3.62;;
37355;SDS011;48747;50.250;18.848;2023-07-28T09:41:20;4.80;;;3.62;;
37355;SDS011;48747;50.250;18.848;2023-07-28T09:43:24;7.92;;;4.25;;
37355;SDS011;48747;50.250;18.848;2023-07-28T09:45:27;6.50;;;3.75;;
37355;SDS011;48747;50.250;18.848;2023-07-28T09:47:33;6.87;;;3.83;;
37355;SDS011;48747;50.250;18.848;2023-07-28T09:49:40;4.70;;;3.40;;
37355;SDS011;48747;50.250;18.848;2023-07-28T09:51:45;5.05;;;3.20;;
37355;SDS011;48747;50.250;18.848;2023-07-28T09:53:58;4.85;;;3.52;;
37355;SDS011;48747;50.250;18.848;2023-07-28T09:56:02;6.28;;;3.20;;
37355;SDS011;48747;50.250;18.848;2023-07-28T09:58:06;5.70;;;3.40;;
37355;SDS011;48747;50.250;18.848;2023-07-28T10:00:13;5.33;;;2.70;;
37355;SDS011;48747;50.250;18.848;2023-07-28T10:02:17;4.60;;;3.62;;
37355;SDS011;48747;50.250;18.848;2023-07-28T10:04:20;5.53;;;3.30;;
37355;SDS011;48747;50.250;18.848;2023-07-28T10:06:24;4.78;;;3.40;;
37355;SDS011;48747;50.250;18.848;2023-07-28T10:08:27;5.17;;;3.50;;
37355;SDS011;48747;50.250;18.848;2023-07-28T10:10:31;5.33;;;3.20;;
37355;SDS011;48747;50.250;18.848;2023-07-28T10:12:53;6.28;;;3.05;;
37355;SDS011;48747;50.250;18.848;2023-07-28T10:15:02;6.25;;;3.62;;
37355;SDS011;48747;50.250;18.848;2023-07-28T10:17:06;6.15;;;3.05;;
37355;SDS011;48747;50.250;18.848;2023-07-28T10:19:12;3.95;;;3.12;;
37355;SDS011;48747;50.250;18.848;2023-07-28T10:21:19;5.58;;;3.25;;
37355;SDS011;48747;50.250;18.848;2023-07-28T10:23:22;5.72;;;3.20;;
37355;SDS011;48747;50.250;18.848;2023-07-28T10:25:26;7.22;;;3.17;;
37355;SDS011;48747;50.250;18.848;2023-07-28T10:27:30;7.47;;;3.45;;
37355;SDS011;48747;50.250;18.848;2023-07-28T10:29:36;4.92;;;3.42;;
37355;SDS011;48747;50.250;18.848;2023-07-28T10:31:53;4.33;;;3.37;;
37355;SDS011;48747;50.250;18.848;2023-07-28T10:33:57;3.85;;;3.02;;
37355;SDS011;48747;50.250;18.848;2023-07-28T10:36:10;5.15;;;2.87;;
37355;SDS011;48747;50.250;18.848;2023-07-28T10:38:27;7.75;;;3.20;;
37355;SDS011;48747;50.250;18.848;2023-07-28T10:40:33;5.15;;;3.10;;
37355;SDS011;48747;50.250;18.848;2023-07-28T10:42:37;4.58;;;2.65;;
37355;SDS011;48747;50.250;18.848;2023-07-28T10:44:40;4.33;;;2.67;;
37355;SDS011;48747;50.250;18.848;2023-07-28T10:46:43;8.38;;;3.25;;
37355;SDS011;48747;50.250;18.848;2023-07-28T10:48:47;4.45;;;2.90;;
37355;SDS011;48747;50.250;18.848;2023-07-28T10:50:51;4.12;;;2.83;;
37355;SDS011;48747;50.250;18.848;2023-07-28T10:52:55;4.65;;;3.05;;
37355;SDS011;48747;50.250;18.848;2023-07-28T10:54:58;4.83;;;2.45;;
37355;SDS011;48747;50.250;18.848;2023-07-28T10:57:02;4.45;;;2.70;;
37355;SDS011;48747;50.250;18.848;2023-07-28T10:59:05;3.95;;;2.80;;
37355;SDS011;48747;50.250;18.848;2023-07-28T11:01:08;7.53;;;3.17;;
37355;SDS011;48747;50.250;18.848;2023-07-28T11:03:11;4.95;;;2.80;;
37355;SDS011;48747;50.250;18.848;2023-07-28T11:05:21;4.03;;;2.55;;
37355;SDS011;48747;50.250;18.848;2023-07-28T11:07:32;3.17;;;2.30;;
37355;SDS011;48747;50.250;18.848;2023-07-28T11:09:35;4.90;;;2.65;;
37355;SDS011;48747;50.250;18.848;2023-07-28T11:11:38;5.08;;;3.00;;
37355;SDS011;48747;50.250;18.848;2023-07-28T11:13:43;4.25;;;2.58;;
37355;SDS011;48747;50.250;18.848;2023-07-28T11:15:46;3.33;;;2.60;;
37355;SDS011;48747;50.250;18.848;2023-07-28T11:17:49;3.65;;;2.50;;
37355;SDS011;48747;50.250;18.848;2023-07-28T11:19:54;4.45;;;2.60;;
37355;SDS011;48747;50.250;18.848;2023-07-28T11:21:58;4.25;;;2.70;;
37355;SDS011;48747;50.250;18.848;2023-07-28T11:24:01;7.62;;;3.02;;
37355;SDS011;48747;50.250;18.848;2023-07-28T11:26:04;3.60;;;2.40;;
37355;SDS011;48747;50.250;18.848;2023-07-28T11:28:10;3.47;;;2.20;;
37355;SDS011;48747;50.250;18.848;2023-07-28T11:30:15;3.87;;;2.58;;
37355;SDS011;48747;50.250;18.848;2023-07-28T11:32:18;3.40;;;2.30;;
37355;SDS011;48747;50.250;18.848;2023-07-28T11:34:23;3.52;;;2.52;;
37355;SDS011;48747;50.250;18.848;2023-07-28T11:36:27;3.85;;;2.50;;
37355;SDS011;48747;50.250;18.848;2023-07-28T11:38:32;3.45;;;2.40;;
37355;SDS011;48747;50.250;18.848;2023-07-28T11:40:36;6.12;;;2.20;;
37355;SDS011;48747;50.250;18.848;2023-07-28T11:42:40;2.35;;;2.02;;
37355;SDS011;48747;50.250;18.848;2023-07-28T11:44:48;4.90;;;2.50;;
37355;SDS011;48747;50.250;18.848;2023-07-28T11:46:51;2.80;;;2.08;;
37355;SDS011;48747;50.250;18.848;2023-07-28T11:49:05;2.95;;;2.05;;
37355;SDS011;48747;50.250;18.848;2023-07-28T11:51:20;2.70;;;2.12;;
37355;SDS011;48747;50.250;18.848;2023-07-28T11:53:23;3.75;;;1.85;;
37355;SDS011;48747;50.250;18.848;2023-07-28T11:55:28;2.02;;;1.82;;
37355;SDS011;48747;50.250;18.848;2023-07-28T11:57:32;2.40;;;1.87;;
37355;SDS011;48747;50.250;18.848;2023-07-28T11:59:35;2.35;;;1.60;;
37355;SDS011;48747;50.250;18.848;2023-07-28T12:02:01;1.50;;;1.30;;
37355;SDS011;48747;50.250;18.848;2023-07-28T12:03:56;2.08;;;1.40;;
37355;SDS011;48747;50.250;18.848;2023-07-28T12:06:05;2.20;;;1.62;;
37355;SDS011;48747;50.250;18.848;2023-07-28T12:08:10;3.77;;;1.50;;
37355;SDS011;48747;50.250;18.848;2023-07-28T12:10:13;1.65;;;1.30;;
37355;SDS011;48747;50.250;18.848;2023-07-28T12:12:17;2.30;;;1.40;;
37355;SDS011;48747;50.250;18.848;2023-07-28T12:14:34;3.75;;;1.52;;
37355;SDS011;48747;50.250;18.848;2023-07-28T12:16:40;2.05;;;1.50;;
37355;SDS011;48747;50.250;18.848;2023-07-28T12:18:45;1.90;;;1.32;;
37355;SDS011;48747;50.250;18.848;2023-07-28T12:20:49;3.80;;;1.65;;
37355;SDS011;48747;50.250;18.848;2023-07-28T12:22:54;2.98;;;1.70;;